首页
METAR-TAF:

METAR-TAF

机场 :

新伊斯蘭瑪巴德國際機場

伊斯兰堡, 巴基斯坦

纬度: 33-32-57N, 经度: 072-49-32E, 海拔: 537米

当前天气观测

该预报发布于30分钟前的19:55 UTC
风速7节,风向西
温度 14°C
湿度 82%
气压 1016 hPa
能見度: 6000

METAR: OPIS 171955Z 27007KT 6000 NSC 14/11 Q1016 RH79

时间: 01:25 (20:25 UTC)

预报

该预报发布于4小时和25分钟前的16:00 UTC
预报有效从17日的 18点(UTC)到 18日的 24点(UTC)
风速4节,风向
能見度: 5000
短暂存在
从 18日的 00点(UTC)到 18日的 03点(UTC)
风速2节,风向东南
能見度: 2000
轻雾
短暂存在
从 18日的 08点(UTC)到 18日的 11点(UTC)
风速15节,风向西,有时为25节阵风

TAF: OPIS 171600Z 1718/1824 09004KT 5000 HZ NSC TEMPO 1800/1803 14002KT 2000 BR TEMPO 1808/1811 27015G25KT

超过4000个机场的气象观测和天气预报(METAR&TAF报告)。

可查询的气象台以黄色和红色小点在地图上表示。

将鼠标移到小点上方,可查看气象台名称。

然后点击查看天气观测和预报。

如需切换地图:点击带黑十字的绿色按钮放大地图;点击带横线的绿色按钮缩小地图;或者点击绿色箭头查看邻近地区的地图。


METAR-TAF: